Time;durP1;ratioP1;P1;durP2;ratioP2;P2;SDS_P1;SDS_P2;PMS_P1;PMS_P2;Temp;Humidity;BMP_temperature;BMP_pressure;BME280_temperature;BME280_humidity;BME280_pressure;Samples;Min_cycle;Max_cycle;Signal;HPM_P1;HPM_P2
2023/09/17 00:01:24;;;;;;;9.13;8.23;;;;;;;18.68;100.00;63929.53;5037921;28;20327;-76
2023/09/17 00:03:51;;;;;;;7.82;7.03;;;;;;;18.70;100.00;63931.59;5057569;28;20220;-76
2023/09/17 00:06:18;;;;;;;7.13;6.38;;;;;;;18.74;100.00;63937.84;5055245;28;20219;-74
2023/09/17 00:08:45;;;;;;;7.10;6.40;;;;;;;18.75;100.00;63934.25;5039119;28;20232;-74
2023/09/17 00:11:12;;;;;;;7.22;6.50;;;;;;;18.75;100.00;63933.72;5043140;28;20224;-76
2023/09/17 00:13:41;;;;;;;7.07;6.47;;;;;;;18.78;100.00;63942.53;5038404;28;20211;-75
2023/09/17 00:16:08;;;;;;;6.70;5.85;;;;;;;18.77;100.00;63936.31;5051756;28;20239;-74
2023/09/17 00:18:35;;;;;;;6.95;6.30;;;;;;;18.79;100.00;63940.47;5049438;28;20264;-76
2023/09/17 00:21:03;;;;;;;7.78;6.80;;;;;;;18.84;100.00;63945.69;5061787;28;20211;-73
2023/09/17 00:23:30;;;;;;;6.35;5.75;;;;;;;18.79;100.00;63938.41;5042602;28;20498;-75
2023/09/17 00:25:57;;;;;;;6.07;5.57;;;;;;;18.75;100.00;63941.44;5047928;28;20212;-76
2023/09/17 00:28:24;;;;;;;6.55;5.95;;;;;;;18.80;100.00;63944.59;5039812;28;20213;-75
2023/09/17 00:30:54;;;;;;;6.50;5.90;;;;;;;18.81;100.00;63942.56;5044505;28;20233;-76
2023/09/17 00:33:21;;;;;;;7.60;7.00;;;;;;;18.78;100.00;63937.34;5046309;28;20473;-74
2023/09/17 00:35:48;;;;;;;8.50;6.65;;;;;;;18.73;100.00;63934.72;5049130;28;20549;-75
2023/09/17 00:38:15;;;;;;;7.90;5.90;;;;;;;18.65;100.00;63926.41;5044558;28;20201;-75
2023/09/17 00:40:42;;;;;;;8.40;7.50;;;;;;;18.67;100.00;63930.53;5050561;28;20406;-74
2023/09/17 00:43:09;;;;;;;11.07;8.60;;;;;;;18.70;100.00;63933.66;5052792;28;20493;-76
2023/09/17 00:45:36;;;;;;;10.50;8.95;;;;;;;18.65;100.00;63931.56;5045951;28;20319;-77
2023/09/17 00:48:07;;;;;;;10.43;8.00;;;;;;;18.66;100.00;63930.00;5044844;28;20198;-75
2023/09/17 00:50:34;;;;;;;9.48;8.55;;;;;;;18.64;100.00;63927.91;5044164;28;20239;-75
2023/09/17 00:53:02;;;;;;;13.18;10.25;;;;;;;18.64;100.00;63927.41;5059802;28;20204;-76
2023/09/17 00:55:30;;;;;;;11.05;9.82;;;;;;;18.63;100.00;63928.94;5046812;28;20221;-75
2023/09/17 00:57:58;;;;;;;11.85;10.13;;;;;;;18.59;100.00;63917.56;5044068;28;20215;-77
2023/09/17 01:00:26;;;;;;;14.65;10.90;;;;;;;18.55;100.00;63912.88;5043902;28;20231;-77
2023/09/17 01:02:53;;;;;;;16.73;11.65;;;;;;;18.55;100.00;63915.44;5047871;28;20493;-75
2023/09/17 01:05:22;;;;;;;19.58;12.52;;;;;;;18.51;100.00;63908.69;5047273;28;20394;-74
2023/09/17 01:07:50;;;;;;;17.42;12.38;;;;;;;18.52;100.00;63915.41;5046593;28;20200;-73
2023/09/17 01:10:19;;;;;;;18.75;13.85;;;;;;;18.54;100.00;63920.09;5062198;28;20236;-74
2023/09/17 01:12:46;;;;;;;15.27;13.05;;;;;;;18.51;100.00;63911.28;5052682;28;20201;-74
2023/09/17 01:15:13;;;;;;;15.88;13.23;;;;;;;18.49;100.00;63909.19;5042581;28;20224;-73
2023/09/17 01:17:41;;;;;;;16.63;13.77;;;;;;;18.51;100.00;63911.28;5056141;28;20221;-74
2023/09/17 01:20:24;;;;;;;17.98;14.30;;;;;;;18.46;100.00;63906.06;5044766;28;20275;-75
2023/09/17 01:22:59;;;;;;;18.40;15.07;;;;;;;18.43;100.00;63903.97;5054416;28;20204;-75
2023/09/17 01:25:42;;;;;;;15.93;14.23;;;;;;;18.41;100.00;63901.38;5068560;28;20228;-75
2023/09/17 01:28:13;;;;;;;18.88;15.02;;;;;;;18.36;100.00;63893.59;5057362;28;20201;-78
2023/09/17 01:30:41;;;;;;;19.63;15.35;;;;;;;18.31;100.00;63890.94;5046003;28;20236;-76
2023/09/17 01:33:10;;;;;;;19.75;14.55;;;;;;;18.17;100.00;63876.88;5058425;28;20201;-76
2023/09/17 01:35:57;;;;;;;18.02;16.13;;;;;;;18.08;100.00;63864.94;5064669;28;20228;-74
2023/09/17 01:38:32;;;;;;;21.08;15.75;;;;;;;18.09;100.00;63873.16;5051671;28;20208;-76
2023/09/17 01:41:00;;;;;;;20.83;16.52;;;;;;;18.02;100.00;63863.81;5047759;28;20326;-75
2023/09/17 01:43:29;;;;;;;18.75;16.70;;;;;;;17.99;100.00;63860.19;5058627;28;20204;-76
2023/09/17 01:45:56;;;;;;;22.13;17.88;;;;;;;18.08;100.00;63864.94;5061528;28;20219;-75
2023/09/17 01:48:25;;;;;;;19.52;16.58;;;;;;;18.08;100.00;63866.97;5049144;28;20224;-76
2023/09/17 01:50:53;;;;;;;20.60;16.55;;;;;;;18.13;100.00;63870.13;5050691;28;20228;-76
2023/09/17 01:53:20;;;;;;;25.48;17.27;;;;;;;18.15;100.00;63877.34;5043696;28;20215;-74
2023/09/17 01:55:52;;;;;;;20.67;17.20;;;;;;;18.20;100.00;63879.47;5054566;28;20547;-75
2023/09/17 01:58:21;;;;;;;23.92;19.60;;;;;;;18.22;100.00;63879.00;5039116;28;20194;-76
2023/09/17 02:00:52;;;;;;;20.88;17.48;;;;;;;18.23;100.00;63880.03;5059501;28;20232;-76
2023/09/17 02:03:19;;;;;;;22.98;17.23;;;;;;;18.13;100.00;63874.75;5052229;28;20193;-76
2023/09/17 02:05:46;;;;;;;24.90;19.08;;;;;;;18.05;100.00;63869.03;5058282;28;20225;-76
2023/09/17 02:08:14;;;;;;;24.67;18.95;;;;;;;18.07;100.00;63866.47;5054752;28;20219;-75
2023/09/17 02:10:41;;;;;;;24.95;19.83;;;;;;;18.15;100.00;63874.28;5053355;28;20236;-76
2023/09/17 02:13:08;;;;;;;26.13;19.13;;;;;;;18.11;100.00;63868.06;5052935;28;20251;-76
2023/09/17 02:15:35;;;;;;;26.52;19.42;;;;;;;18.12;100.00;63869.09;5060752;28;20248;-77
2023/09/17 02:18:05;;;;;;;24.90;18.90;;;;;;;18.13;100.00;63875.28;5045067;28;20232;-76
2023/09/17 02:20:32;;;;;;;25.65;19.88;;;;;;;18.17;100.00;63878.94;5053935;28;20225;-75
2023/09/17 02:22:59;;;;;;;27.50;20.85;;;;;;;18.14;100.00;63875.81;5060076;28;20197;-76
2023/09/17 02:25:26;;;;;;;27.85;19.85;;;;;;;18.15;100.00;63874.28;5051798;28;20221;-76
2023/09/17 02:27:53;;;;;;;25.38;19.17;;;;;;;18.15;100.00;63872.22;5063290;28;20212;-74
2023/09/17 02:30:20;;;;;;;28.65;20.08;;;;;;;18.09;100.00;63868.00;5057158;28;20302;-76
2023/09/17 02:32:47;;;;;;;28.58;19.30;;;;;;;18.08;100.00;63864.94;5044789;28;20268;-76
2023/09/17 02:35:15;;;;;;;27.00;19.98;;;;;;;17.91;100.00;63851.84;5047199;28;20216;-75
2023/09/17 02:37:42;;;;;;;28.90;20.25;;;;;;;17.91;100.00;63852.34;5066035;28;20235;-75
2023/09/17 02:40:11;;;;;;;28.38;20.58;;;;;;;17.94;100.00;63850.34;5056119;28;20273;-76
2023/09/17 02:42:38;;;;;;;24.08;18.95;;;;;;;17.88;100.00;63846.13;5045254;28;20218;-74
2023/09/17 02:45:08;;;;;;;25.70;20.63;;;;;;;17.83;100.00;63840.94;5045833;28;20224;-75
2023/09/17 02:47:35;;;;;;;26.40;20.05;;;;;;;17.86;100.00;63841.50;5051689;28;20203;-75
2023/09/17 02:50:03;;;;;;;27.20;20.30;;;;;;;17.88;100.00;63843.56;5056694;28;20305;-75
2023/09/17 02:52:32;;;;;;;26.83;19.90;;;;;;;17.94;100.00;63852.41;5052764;28;20225;-74
2023/09/17 02:54:59;;;;;;;27.23;19.85;;;;;;;17.93;100.00;63851.88;5046514;28;20561;-76
2023/09/17 02:57:26;;;;;;;25.85;19.88;;;;;;;17.96;100.00;63852.44;5062694;28;20404;-74
2023/09/17 02:59:53;;;;;;;26.17;19.67;;;;;;;17.94;100.00;63855.50;5065368;28;20221;-74
2023/09/17 03:02:20;;;;;;;26.55;19.10;;;;;;;17.89;100.00;63844.63;5043196;28;20241;-74
2023/09/17 03:04:47;;;;;;;23.88;19.38;;;;;;;17.85;100.00;63848.69;5044707;28;20233;-74
2023/09/17 03:07:18;;;;;;;28.75;21.00;;;;;;;17.88;100.00;63851.28;5050787;28;20215;-75
2023/09/17 03:09:47;;;;;;;28.15;21.50;;;;;;;17.89;100.00;63849.75;5041498;28;20257;-74
2023/09/17 03:12:14;;;;;;;28.45;20.50;;;;;;;17.94;100.00;63849.81;5044432;28;20216;-75
2023/09/17 03:14:44;;;;;;;24.92;20.48;;;;;;;17.95;100.00;63858.59;5047467;28;20224;-76
2023/09/17 03:17:10;;;;;;;26.08;19.65;;;;;;;17.90;100.00;63850.81;5055805;28;20217;-75
2023/09/17 03:19:38;;;;;;;30.05;21.60;;;;;;;17.91;100.00;63852.34;5054163;28;20281;-73
2023/09/17 03:22:05;;;;;;;26.13;20.40;;;;;;;17.96;100.00;63857.59;5051977;28;20197;-76
2023/09/17 03:24:33;;;;;;;27.67;20.50;;;;;;;17.96;100.00;63851.91;5054769;28;20423;-75
2023/09/17 03:27:01;;;;;;;27.60;21.08;;;;;;;17.89;100.00;63847.72;5047985;28;20208;-74
2023/09/17 03:29:28;;;;;;;26.67;20.95;;;;;;;17.82;100.00;63837.84;5046424;28;20221;-76
2023/09/17 03:31:56;;;;;;;28.27;21.55;;;;;;;17.88;100.00;63849.25;5051438;28;20212;-76
2023/09/17 03:34:23;;;;;;;28.10;21.77;;;;;;;17.88;100.00;63846.66;5054105;28;20284;-76
2023/09/17 03:36:50;;;;;;;30.95;21.52;;;;;;;17.92;100.00;63848.25;5047345;28;20241;-75
2023/09/17 03:39:17;;;;;;;25.83;21.17;;;;;;;17.93;100.00;63854.44;5047904;28;20217;-75
2023/09/17 03:41:44;;;;;;;28.83;21.30;;;;;;;17.96;100.00;63857.06;5048453;28;20247;-75
2023/09/17 03:44:14;;;;;;;27.02;20.98;;;;;;;18.00;100.00;63861.22;5048133;28;20248;-75
2023/09/17 03:46:41;;;;;;;27.70;20.83;;;;;;;18.03;100.00;63864.34;5034963;28;20225;-73
2023/09/17 03:49:09;;;;;;;29.65;22.50;;;;;;;18.00;100.00;63861.75;5063734;28;20262;-74
2023/09/17 03:51:37;;;;;;;33.75;21.42;;;;;;;17.89;100.00;63849.75;5045457;28;20537;-75
2023/09/17 03:54:04;;;;;;;28.02;20.23;;;;;;;17.83;100.00;63849.19;5056557;28;20264;-74
2023/09/17 03:56:31;;;;;;;29.77;21.90;;;;;;;17.79;100.00;63834.72;5045078;28;20512;-75
2023/09/17 03:58:59;;;;;;;26.98;19.85;;;;;;;17.75;100.00;63833.13;5059435;28;20241;-74
2023/09/17 04:01:29;;;;;;;31.58;22.27;;;;;;;17.69;100.00;63826.88;5045696;28;20205;-74
2023/09/17 04:03:56;;;;;;;33.45;22.27;;;;;;;17.68;100.00;63822.75;5053143;28;20454;-75
2023/09/17 04:06:23;;;;;;;35.97;23.45;;;;;;;17.64;100.00;63821.66;5046041;28;20536;-75
2023/09/17 04:08:50;;;;;;;31.48;21.65;;;;;;;17.66;100.00;63823.22;5048605;28;20236;-76
2023/09/17 04:11:17;;;;;;;32.30;21.63;;;;;;;17.55;100.00;63814.88;5053296;28;20236;-73
2023/09/17 04:13:44;;;;;;;30.55;21.75;;;;;;;17.55;100.00;63812.28;5053703;28;20253;-74
2023/09/17 04:16:12;;;;;;;29.85;21.75;;;;;;;17.59;100.00;63815.94;5058813;28;20210;-73
2023/09/17 04:18:40;;;;;;;28.58;21.77;;;;;;;17.53;100.00;63807.13;5048625;28;20204;-76
2023/09/17 04:21:07;;;;;;;29.45;22.60;;;;;;;17.57;100.00;63811.28;5064827;28;20358;-76
2023/09/17 04:23:34;;;;;;;33.70;21.08;;;;;;;17.55;100.00;63811.78;5048714;28;20273;-74
2023/09/17 04:26:02;;;;;;;33.08;20.75;;;;;;;17.52;100.00;63811.75;5047248;28;20205;-76
2023/09/17 04:28:30;;;;;;;26.77;20.38;;;;;;;17.46;100.00;63799.81;5045131;28;20255;-75
2023/09/17 04:30:57;;;;;;;28.35;20.65;;;;;;;17.47;100.00;63803.44;5060786;28;20286;-74
2023/09/17 04:33:25;;;;;;;29.50;20.92;;;;;;;17.47;100.00;63800.88;5045770;28;20201;-75
2023/09/17 04:35:58;;;;;;;30.45;21.70;;;;;;;17.55;100.00;63809.22;5063921;28;20213;-75
2023/09/17 04:38:28;;;;;;;27.33;19.42;;;;;;;17.63;100.00;63820.13;5044983;28;20193;-73
2023/09/17 04:40:55;;;;;;;27.10;19.90;;;;;;;17.76;100.00;63831.06;5041688;28;20247;-75
2023/09/17 04:43:23;;;;;;;31.33;20.85;;;;;;;17.81;100.00;63841.94;5048208;28;20252;-74
2023/09/17 04:45:50;;;;;;;32.40;21.20;;;;;;;17.95;100.00;63851.38;5062196;28;20204;-75
2023/09/17 04:48:17;;;;;;;30.13;19.80;;;;;;;18.05;100.00;63869.03;5043474;28;20212;-74
2023/09/17 04:50:45;;;;;;;32.13;20.45;;;;;;;18.18;100.00;63879.97;5043682;28;20296;-74
2023/09/17 04:53:13;;;;;;;28.58;20.05;;;;;;;18.24;100.00;63883.66;5049177;28;20532;-77
2023/09/17 04:55:39;;;;;;;30.10;20.73;;;;;;;18.32;100.00;63894.56;5042291;28;20238;-75
2023/09/17 04:58:06;;;;;;;29.65;21.00;;;;;;;18.36;100.00;63896.66;5047701;28;20196;-75
2023/09/17 05:00:34;;;;;;;32.10;20.55;;;;;;;18.43;100.00;63909.13;5042066;28;20505;-76
2023/09/17 05:03:01;;;;;;;30.30;20.85;;;;;;;18.57;100.00;63920.63;5043919;28;20516;-76
2023/09/17 05:05:28;;;;;;;30.27;20.83;;;;;;;18.63;100.00;63921.72;5044146;28;20221;-75
2023/09/17 05:07:55;;;;;;;34.13;21.92;;;;;;;18.75;100.00;63936.81;5040528;28;20218;-74
2023/09/17 05:10:23;;;;;;;29.77;21.17;;;;;;;18.83;100.00;63945.16;5047871;28;20229;-74
2023/09/17 05:12:50;;;;;;;31.25;21.50;;;;;;;18.87;100.00;63951.38;5045459;28;20366;-75
2023/09/17 05:15:17;;;;;;;27.63;18.65;;;;;;;18.96;100.00;63961.28;5042120;28;20293;-76
2023/09/17 05:17:44;;;;;;;34.00;20.65;;;;;;;19.07;100.00;63964.50;5036136;28;20721;-75
2023/09/17 05:20:12;;;;;;;31.90;20.50;;;;;;;19.08;100.00;63973.81;5043111;28;20227;-75
2023/09/17 05:22:39;;;;;;;26.98;19.02;;;;;;;19.23;100.00;63988.91;5043383;28;20205;-75
2023/09/17 05:25:09;;;;;;;29.23;19.88;;;;;;;19.23;100.00;63986.84;5043141;28;20228;-76
2023/09/17 05:27:37;;;;;;;27.40;19.58;;;;;;;19.37;100.00;64003.53;5044681;28;20239;-76
2023/09/17 05:30:05;;;;;;;30.10;19.70;;;;;;;19.43;100.00;64005.13;5043751;28;20224;-75
2023/09/17 05:32:32;;;;;;;25.00;18.02;;;;;;;19.50;100.00;64019.66;5046327;28;20346;-74
2023/09/17 05:35:02;;;;;;;28.85;20.58;;;;;;;19.57;100.00;64021.81;5053098;28;20393;-78
2023/09/17 05:37:30;;;;;;;24.35;18.02;;;;;;;19.69;100.00;64031.72;5048056;28;20204;-74
2023/09/17 05:39:58;;;;;;;26.42;18.88;;;;;;;19.73;100.00;64038.50;5046790;28;20277;-75
2023/09/17 05:42:25;;;;;;;26.60;19.17;;;;;;;19.90;100.00;64055.69;5055155;28;20209;-75
2023/09/17 05:44:53;;;;;;;23.10;17.80;;;;;;;20.02;100.00;64068.25;5044964;28;20217;-74
2023/09/17 05:47:20;;;;;;;25.25;17.35;;;;;;;20.14;100.00;64080.75;5060898;28;20276;-75
2023/09/17 05:49:47;;;;;;;26.60;18.75;;;;;;;20.33;100.00;64101.13;5060743;28;20220;-75
2023/09/17 05:52:16;;;;;;;28.92;17.75;;;;;;;20.55;100.00;64124.06;5053333;28;20278;-77
2023/09/17 05:54:42;;;;;;;27.52;18.25;;;;;;;20.65;100.00;64131.41;5047185;28;20225;-75
2023/09/17 05:57:09;;;;;;;24.17;16.90;;;;;;;20.89;100.00;64161.63;5057446;28;20259;-76
2023/09/17 05:59:36;;;;;;;24.83;17.20;;;;;;;21.17;100.00;64188.31;5048945;28;20221;-75
2023/09/17 06:02:05;;;;;;;22.95;16.58;;;;;;;21.39;100.00;64213.88;5049060;28;20209;-75
2023/09/17 06:04:32;;;;;;;20.75;15.45;;;;;;;21.70;100.00;64245.75;5053030;28;20294;-75
2023/09/17 06:07:00;;;;;;;27.73;17.20;;;;;;;21.92;100.00;64265.63;5052657;28;20247;-75
2023/09/17 06:09:27;;;;;;;20.42;16.35;;;;;;;21.85;99.73;64258.84;5049142;28;20229;-74
2023/09/17 06:11:57;;;;;;;25.10;15.40;;;;;;;21.94;100.00;64265.13;5053044;28;20225;-74
2023/09/17 06:14:24;;;;;;;26.20;16.08;;;;;;;21.79;99.52;64252.56;5052993;28;20263;-74
2023/09/17 06:16:51;;;;;;;22.15;16.98;;;;;;;21.51;100.00;64221.22;5065883;28;20197;-74
2023/09/17 06:19:20;;;;;;;26.38;14.77;;;;;;;21.69;100.00;64245.22;5049659;28;20451;-74
2023/09/17 06:21:47;;;;;;;20.23;15.90;;;;;;;21.86;100.00;64259.88;5056436;28;20466;-74
2023/09/17 06:24:14;;;;;;;21.35;15.45;;;;;;;21.88;100.00;64264.03;5060770;28;20225;-77
2023/09/17 06:26:41;;;;;;;25.08;16.40;;;;;;;21.77;100.00;64251.00;5063458;28;20203;-75
2023/09/17 06:29:09;;;;;;;22.02;15.90;;;;;;;21.93;100.00;64267.19;5060837;28;20245;-75
2023/09/17 06:31:36;;;;;;;21.73;15.57;;;;;;;22.02;100.00;64276.59;5049751;28;20643;-75
2023/09/17 06:34:04;;;;;;;20.85;15.55;;;;;;;22.08;99.73;64282.34;5034485;28;20222;-76
2023/09/17 06:36:32;;;;;;;17.17;13.13;;;;;;;21.97;97.11;64266.19;5036270;28;20280;-75
2023/09/17 06:38:59;;;;;;;19.60;14.07;;;;;;;21.80;98.17;64256.19;5044810;28;20227;-75
2023/09/17 06:41:26;;;;;;;21.70;15.18;;;;;;;21.98;99.32;64269.31;5055890;28;20272;-77
2023/09/17 06:43:53;;;;;;;25.25;16.77;;;;;;;21.94;99.48;64270.84;5048778;28;20213;-75
2023/09/17 06:46:22;;;;;;;18.52;14.05;;;;;;;21.83;100.00;64259.34;5058225;28;20208;-75
2023/09/17 06:48:49;;;;;;;20.27;15.77;;;;;;;21.94;100.00;64270.84;5050441;28;20522;-76
2023/09/17 06:51:16;;;;;;;20.58;13.40;;;;;;;22.09;97.54;64283.91;5045086;28;20240;-76
2023/09/17 06:53:45;;;;;;;19.00;13.35;;;;;;;22.17;98.05;64291.75;5069315;28;20228;-77
2023/09/17 06:56:13;;;;;;;18.98;14.27;;;;;;;22.23;97.75;64298.00;5062109;28;20255;-76
2023/09/17 06:58:42;;;;;;;20.35;14.13;;;;;;;22.33;96.17;64308.47;5060350;28;20228;-77
2023/09/17 07:01:10;;;;;;;19.95;14.18;;;;;;;22.31;95.47;64308.97;5051585;28;20203;-78
2023/09/17 07:03:37;;;;;;;20.02;15.45;;;;;;;22.43;95.75;64318.94;5057658;28;20220;-77
2023/09/17 07:06:04;;;;;;;18.13;14.35;;;;;;;22.48;95.46;64327.28;5034971;28;20216;-77
2023/09/17 07:08:31;;;;;;;19.98;15.55;;;;;;;22.60;95.71;64334.66;5053574;28;20221;-76
2023/09/17 07:11:00;;;;;;;23.13;15.95;;;;;;;22.81;95.69;64358.69;5043669;28;20231;-76
2023/09/17 07:13:27;;;;;;;23.42;15.80;;;;;;;22.96;93.62;64374.38;5055110;28;20232;-76
2023/09/17 07:15:55;;;;;;;23.58;15.85;;;;;;;23.12;93.28;64393.69;5051929;28;20213;-78
2023/09/17 07:18:22;;;;;;;22.27;15.88;;;;;;;23.24;91.34;64405.72;5049853;28;20202;-77
2023/09/17 07:20:49;;;;;;;21.17;15.50;;;;;;;23.25;89.94;64401.56;5064110;28;20229;-77
2023/09/17 07:23:17;;;;;;;21.25;15.13;;;;;;;23.24;91.03;64408.31;5063422;28;20227;-77
2023/09/17 07:25:45;;;;;;;22.80;16.15;;;;;;;23.29;90.21;64406.31;5056505;28;20224;-77
2023/09/17 07:28:14;;;;;;;19.38;14.45;;;;;;;23.44;90.15;64424.59;5039165;28;20202;-77
2023/09/17 07:30:41;;;;;;;23.27;16.02;;;;;;;23.40;89.65;64425.59;5055144;28;20229;-78
2023/09/17 07:33:08;;;;;;;25.10;16.13;;;;;;;23.42;89.96;64422.50;5052965;28;20213;-79
2023/09/17 07:35:37;;;;;;;21.75;16.00;;;;;;;23.38;89.55;64423.53;5057463;28;20228;-77
2023/09/17 07:38:04;;;;;;;19.70;14.52;;;;;;;23.42;89.70;64421.97;5038789;28;20421;-79
2023/09/17 07:40:32;;;;;;;19.73;14.55;;;;;;;23.59;88.84;64440.28;5045736;28;20419;-79
2023/09/17 07:43:01;;;;;;;20.50;14.18;;;;;;;23.33;87.18;64412.56;5044830;28;20220;-77
2023/09/17 07:45:29;;;;;;;22.17;14.73;;;;;;;23.12;90.72;64391.09;5038471;28;20225;-75
2023/09/17 07:47:56;;;;;;;22.55;15.15;;;;;;;23.41;91.00;64418.84;5057390;28;20218;-77
2023/09/17 07:50:23;;;;;;;18.42;14.35;;;;;;;23.70;89.27;64451.78;5051765;28;20292;-76
2023/09/17 07:52:50;;;;;;;20.17;14.98;;;;;;;23.92;85.98;64472.22;5046997;28;20233;-78
2023/09/17 07:55:18;;;;;;;16.38;12.93;;;;;;;23.45;85.06;64427.72;5046727;28;20323;-75
2023/09/17 07:57:46;;;;;;;20.80;14.65;;;;;;;23.13;90.43;64396.81;5066121;28;20225;-76
2023/09/17 08:00:15;;;;;;;18.02;14.07;;;;;;;22.88;91.77;64366.00;5051620;28;20592;-76
2023/09/17 08:02:44;;;;;;;24.48;15.15;;;;;;;23.21;90.66;64400.00;5044906;28;20209;-77
2023/09/17 08:05:11;;;;;;;16.17;13.48;;;;;;;23.51;87.71;64431.38;5041999;28;20311;-76
2023/09/17 08:07:39;;;;;;;17.67;13.55;;;;;;;23.78;87.74;64467.44;5048448;28;20378;-78
2023/09/17 08:10:08;;;;;;;18.00;13.43;;;;;;;24.04;84.35;64488.94;5047595;28;20326;-78
2023/09/17 08:12:34;;;;;;;16.42;12.98;;;;;;;23.92;82.52;64476.88;5040631;28;20534;-77
2023/09/17 08:15:01;;;;;;;14.70;12.55;;;;;;;23.90;81.99;64474.81;5012565;28;20232;-77
2023/09/17 08:17:29;;;;;;;16.85;13.45;;;;;;;23.65;83.09;64446.56;5030773;28;20232;-76
2023/09/17 08:19:58;;;;;;;19.00;14.82;;;;;;;23.77;84.96;64456.00;5016822;28;20234;-74
2023/09/17 08:22:27;;;;;;;21.50;15.05;;;;;;;23.73;84.35;64454.94;5027050;28;20210;-76
2023/09/17 08:24:54;;;;;;;18.23;13.48;;;;;;;24.05;83.59;64487.91;5024890;28;20260;-77
2023/09/17 08:27:21;;;;;;;16.20;12.68;;;;;;;24.23;82.49;64511.44;5015236;28;20275;-77
2023/09/17 08:29:48;;;;;;;17.58;13.73;;;;;;;24.57;80.92;64541.81;5022953;28;20217;-77
2023/09/17 08:32:15;;;;;;;18.65;13.63;;;;;;;24.86;77.80;64575.34;5024246;28;20238;-78
2023/09/17 08:34:42;;;;;;;18.00;13.27;;;;;;;24.69;77.36;64549.72;5025928;28;20218;-77
2023/09/17 08:37:10;;;;;;;15.43;12.10;;;;;;;24.78;75.23;64563.84;5022232;28;20490;-76
2023/09/17 08:39:37;;;;;;;16.13;12.13;;;;;;;24.62;75.54;64550.19;5024656;28;20568;-78
2023/09/17 08:42:06;;;;;;;17.15;13.43;;;;;;;24.48;76.18;64532.94;5024991;28;20292;-75
2023/09/17 08:44:37;;;;;;;19.13;13.95;;;;;;;24.50;79.37;64537.63;5023861;28;20277;-76
2023/09/17 08:47:04;;;;;;;17.23;12.73;;;;;;;24.08;77.14;64488.44;5023222;28;20261;-76
2023/09/17 08:49:31;;;;;;;15.77;12.68;;;;;;;24.11;79.31;64496.78;5025672;28;20214;-77
2023/09/17 08:52:03;;;;;;;19.38;13.93;;;;;;;24.29;79.90;64512.50;5025218;28;20241;-76
2023/09/17 08:54:39;;;;;;;18.50;13.35;;;;;;;24.36;80.00;64525.03;5021103;28;20236;-77
2023/09/17 08:57:08;;;;;;;16.75;12.63;;;;;;;24.44;78.23;64525.59;5029035;28;20228;-78
2023/09/17 08:59:39;;;;;;;19.58;14.18;;;;;;;24.28;78.67;64514.06;5022850;28;20452;-77
2023/09/17 09:02:16;;;;;;;19.73;15.77;;;;;;;24.28;77.85;64514.06;5023357;28;20198;-77
2023/09/17 09:04:47;;;;;;;22.80;17.55;;;;;;;23.78;79.09;64459.66;5023581;28;20220;-77
2023/09/17 09:07:16;;;;;;;38.47;27.70;;;;;;;23.96;81.53;64481.06;5025471;28;20202;-77
2023/09/17 09:09:46;;;;;;;18.45;15.27;;;;;;;24.23;81.65;64506.25;5022934;28;20390;-77
2023/09/17 09:12:14;;;;;;;22.27;13.98;;;;;;;24.46;79.75;64535.50;5017243;28;20387;-76
2023/09/17 09:14:43;;;;;;;19.58;14.50;;;;;;;24.62;78.36;64550.19;5024370;28;20269;-76
2023/09/17 09:17:11;;;;;;;19.92;14.63;;;;;;;24.58;77.66;64540.25;5023797;28;20198;-76
2023/09/17 09:19:39;;;;;;;18.52;14.75;;;;;;;24.74;77.05;64562.25;5031639;28;20232;-77
2023/09/17 09:22:07;;;;;;;19.02;14.48;;;;;;;24.78;75.56;64561.75;5018243;28;20300;-78
2023/09/17 09:24:41;;;;;;;20.27;15.52;;;;;;;24.68;75.96;64553.88;5028441;28;20226;-78
2023/09/17 09:27:10;;;;;;;24.02;17.25;;;;;;;24.88;74.14;64576.91;5042536;28;20200;-77
2023/09/17 09:29:37;;;;;;;25.48;19.05;;;;;;;24.85;73.35;64569.06;5043335;28;20221;-75
2023/09/17 09:32:09;;;;;;;24.50;18.42;;;;;;;25.02;73.42;64584.28;5026991;28;20233;-75
2023/09/17 09:34:37;;;;;;;23.52;16.20;;;;;;;25.04;73.04;64594.19;5027825;28;20242;-76
2023/09/17 09:37:06;;;;;;;19.27;14.55;;;;;;;25.17;71.68;64604.16;5028483;28;20232;-77
2023/09/17 09:39:35;;;;;;;26.73;21.52;;;;;;;24.61;74.21;64543.94;5022036;28;20217;-78
2023/09/17 09:42:02;;;;;;;20.83;15.75;;;;;;;24.80;73.99;64571.13;5034258;28;20198;-78
2023/09/17 09:44:34;;;;;;;20.20;15.82;;;;;;;24.77;73.21;64562.78;5029167;28;20226;-76
2023/09/17 09:47:03;;;;;;;23.35;15.80;;;;;;;24.42;75.29;64528.72;5022322;28;20197;-76
2023/09/17 09:49:39;;;;;;;23.02;17.52;;;;;;;24.08;77.36;64491.06;5021863;28;20293;-76
2023/09/17 09:52:06;;;;;;;18.77;15.10;;;;;;;24.06;76.16;64491.56;5020798;28;20226;-76
2023/09/17 09:54:34;;;;;;;28.00;20.98;;;;;;;23.85;77.19;64466.94;5027421;28;20245;-75
2023/09/17 09:57:04;;;;;;;21.05;15.95;;;;;;;23.70;79.22;64453.88;5026502;28;20271;-76
2023/09/17 09:59:36;;;;;;;23.15;16.48;;;;;;;23.92;80.22;64474.81;5018620;28;20250;-77
2023/09/17 10:02:04;;;;;;;20.45;16.80;;;;;;;23.99;79.97;64486.84;5017266;28;20210;-77
2023/09/17 10:04:31;;;;;;;36.25;27.52;;;;;;;23.97;79.61;64482.66;5028963;28;20233;-76
2023/09/17 10:07:00;;;;;;;22.50;17.75;;;;;;;24.11;79.38;64491.06;5015971;28;20198;-77
2023/09/17 10:09:27;;;;;;;18.80;15.32;;;;;;;24.13;78.05;64496.28;5029323;28;20297;-78
2023/09/17 10:11:54;;;;;;;24.10;16.23;;;;;;;24.23;79.52;64506.25;5028272;28;20264;-78
2023/09/17 10:14:22;;;;;;;18.83;15.25;;;;;;;24.12;76.18;64492.63;5025180;28;20223;-78
2023/09/17 10:16:51;;;;;;;19.65;15.27;;;;;;;23.58;77.51;64436.63;5021690;28;20499;-77
2023/09/17 10:19:21;;;;;;;20.27;15.32;;;;;;;23.58;78.83;64444.44;5023030;28;20383;-78
2023/09/17 10:21:49;;;;;;;18.30;15.27;;;;;;;24.02;75.92;64486.84;5030294;28;20206;-78
2023/09/17 10:24:18;;;;;;;19.60;14.77;;;;;;;23.86;75.71;64470.63;5022799;28;20229;-79
2023/09/17 10:26:46;;;;;;;20.85;17.30;;;;;;;23.52;81.86;64435.03;5029490;28;20210;-78
2023/09/17 10:29:19;;;;;;;25.02;19.17;;;;;;;24.04;79.85;64488.94;5021617;28;20245;-78
2023/09/17 10:31:47;;;;;;;25.45;17.98;;;;;;;24.46;74.83;64530.84;5028767;28;20350;-78
2023/09/17 10:34:18;;;;;;;18.50;14.85;;;;;;;24.31;73.14;64514.59;5028874;28;20267;-80
2023/09/17 10:36:47;;;;;;;19.50;15.18;;;;;;;24.30;73.24;64514.06;5028729;28;20248;-77
2023/09/17 10:39:15;;;;;;;19.85;14.55;;;;;;;23.75;76.69;64457.03;5024783;28;20309;-79
2023/09/17 10:41:44;;;;;;;25.20;15.50;;;;;;;23.93;74.55;64475.34;5023166;28;20214;-78
2023/09/17 10:44:15;;;;;;;19.35;13.75;;;;;;;24.02;75.50;64487.91;5027189;28;20425;-76
2023/09/17 10:46:45;;;;;;;22.05;15.63;;;;;;;24.25;73.62;64508.31;5020230;28;20222;-78
2023/09/17 10:49:13;;;;;;;14.65;13.10;;;;;;;24.36;70.75;64519.84;5015477;28;20228;-78
2023/09/17 10:51:44;;;;;;;18.10;13.68;;;;;;;24.43;70.26;64527.16;5024295;28;20269;-77
2023/09/17 10:54:11;;;;;;;17.23;13.57;;;;;;;24.75;69.55;64563.81;5028005;28;20233;-77
2023/09/17 10:56:41;;;;;;;17.58;14.45;;;;;;;24.98;70.39;64587.38;5028242;28;20507;-78
2023/09/17 10:59:11;;;;;;;20.77;15.55;;;;;;;24.89;70.23;64578.47;5029779;28;20252;-77
2023/09/17 11:01:42;;;;;;;19.55;16.05;;;;;;;25.16;70.76;64603.66;5018721;28;20212;-79
2023/09/17 11:04:14;;;;;;;23.27;16.35;;;;;;;25.55;67.92;64649.72;5030232;28;20293;-79
2023/09/17 11:06:44;;;;;;;19.75;16.10;;;;;;;25.87;66.50;64678.03;5028531;28;20209;-77
2023/09/17 11:09:12;;;;;;;23.65;16.75;;;;;;;26.12;65.30;64706.34;5020241;28;20298;-78
2023/09/17 11:11:40;;;;;;;17.65;15.10;;;;;;;25.87;66.09;64680.66;5026466;28;20209;-79
2023/09/17 11:14:08;;;;;;;21.83;16.30;;;;;;;25.84;63.49;64677.50;5025572;28;20313;-78
2023/09/17 11:16:36;;;;;;;20.73;17.10;;;;;;;25.48;67.03;64639.25;5010979;28;20214;-77
2023/09/17 11:19:10;;;;;;;17.88;15.25;;;;;;;25.21;67.03;64606.28;5007170;28;20226;-78